sensor_id;sensor_type;location;lat;lon;timestamp;P1;durP1;ratioP1;P2;durP2;ratioP2
75737;SDS011;64356;45.638;13.764;2023-01-25T00:02:04;7.93;;;3.00;;
75737;SDS011;64356;45.638;13.764;2023-01-25T00:04:30;7.47;;;3.13;;
75737;SDS011;64356;45.638;13.764;2023-01-25T00:06:56;5.30;;;3.08;;
75737;SDS011;64356;45.638;13.764;2023-01-25T00:09:22;5.63;;;3.00;;
75737;SDS011;64356;45.638;13.764;2023-01-25T00:11:49;4.13;;;3.33;;
75737;SDS011;64356;45.638;13.764;2023-01-25T00:14:15;7.32;;;3.75;;
75737;SDS011;64356;45.638;13.764;2023-01-25T00:16:41;6.97;;;3.17;;
75737;SDS011;64356;45.638;13.764;2023-01-25T00:19:07;5.43;;;3.17;;
75737;SDS011;64356;45.638;13.764;2023-01-25T00:21:34;7.15;;;3.28;;
75737;SDS011;64356;45.638;13.764;2023-01-25T00:24:01;6.07;;;3.38;;
75737;SDS011;64356;45.638;13.764;2023-01-25T00:26:37;4.63;;;2.92;;
75737;SDS011;64356;45.638;13.764;2023-01-25T00:29:04;5.80;;;3.20;;
75737;SDS011;64356;45.638;13.764;2023-01-25T00:34:00;3.20;;;2.80;;
75737;SDS011;64356;45.638;13.764;2023-01-25T00:39:01;4.90;;;3.17;;
75737;SDS011;64356;45.638;13.764;2023-01-25T00:41:27;6.45;;;3.53;;
75737;SDS011;64356;45.638;13.764;2023-01-25T00:43:53;5.72;;;3.03;;
75737;SDS011;64356;45.638;13.764;2023-01-25T00:46:19;6.88;;;3.78;;
75737;SDS011;64356;45.638;13.764;2023-01-25T00:48:44;5.57;;;3.28;;
75737;SDS011;64356;45.638;13.764;2023-01-25T00:51:10;4.95;;;3.00;;
75737;SDS011;64356;45.638;13.764;2023-01-25T00:53:36;5.35;;;3.65;;
75737;SDS011;64356;45.638;13.764;2023-01-25T00:56:02;4.28;;;3.08;;
75737;SDS011;64356;45.638;13.764;2023-01-25T00:58:28;3.88;;;2.85;;
75737;SDS011;64356;45.638;13.764;2023-01-25T01:00:54;5.82;;;3.42;;
75737;SDS011;64356;45.638;13.764;2023-01-25T01:03:20;3.95;;;3.00;;
75737;SDS011;64356;45.638;13.764;2023-01-25T01:05:46;4.57;;;2.90;;
75737;SDS011;64356;45.638;13.764;2023-01-25T01:08:13;6.10;;;2.90;;
75737;SDS011;64356;45.638;13.764;2023-01-25T01:10:39;5.03;;;3.30;;
75737;SDS011;64356;45.638;13.764;2023-01-25T01:13:05;6.97;;;3.17;;
75737;SDS011;64356;45.638;13.764;2023-01-25T01:15:35;6.70;;;3.75;;
75737;SDS011;64356;45.638;13.764;2023-01-25T01:18:01;7.47;;;3.25;;
75737;SDS011;64356;45.638;13.764;2023-01-25T01:20:27;3.45;;;2.63;;
75737;SDS011;64356;45.638;13.764;2023-01-25T01:22:53;3.63;;;2.88;;
75737;SDS011;64356;45.638;13.764;2023-01-25T01:25:21;6.25;;;3.45;;
75737;SDS011;64356;45.638;13.764;2023-01-25T01:27:47;5.35;;;3.03;;
75737;SDS011;64356;45.638;13.764;2023-01-25T01:30:13;5.88;;;2.95;;
75737;SDS011;64356;45.638;13.764;2023-01-25T01:32:39;7.82;;;3.38;;
75737;SDS011;64356;45.638;13.764;2023-01-25T01:35:05;7.05;;;3.78;;
75737;SDS011;64356;45.638;13.764;2023-01-25T01:37:31;8.00;;;3.88;;
75737;SDS011;64356;45.638;13.764;2023-01-25T01:39:57;5.47;;;2.92;;
75737;SDS011;64356;45.638;13.764;2023-01-25T01:42:22;4.15;;;3.22;;
75737;SDS011;64356;45.638;13.764;2023-01-25T01:44:49;5.35;;;3.20;;
75737;SDS011;64356;45.638;13.764;2023-01-25T01:49:57;5.50;;;3.88;;
75737;SDS011;64356;45.638;13.764;2023-01-25T01:52:30;3.63;;;3.10;;
75737;SDS011;64356;45.638;13.764;2023-01-25T01:55:00;3.83;;;2.97;;
75737;SDS011;64356;45.638;13.764;2023-01-25T01:57:36;4.72;;;3.38;;
75737;SDS011;64356;45.638;13.764;2023-01-25T02:00:07;5.85;;;3.28;;
75737;SDS011;64356;45.638;13.764;2023-01-25T02:02:37;3.80;;;2.80;;
75737;SDS011;64356;45.638;13.764;2023-01-25T02:05:04;4.57;;;3.28;;
75737;SDS011;64356;45.638;13.764;2023-01-25T02:07:34;5.35;;;3.83;;
75737;SDS011;64356;45.638;13.764;2023-01-25T02:10:03;4.45;;;3.80;;
75737;SDS011;64356;45.638;13.764;2023-01-25T02:12:30;6.93;;;3.67;;
75737;SDS011;64356;45.638;13.764;2023-01-25T02:14:56;5.63;;;3.55;;
75737;SDS011;64356;45.638;13.764;2023-01-25T02:17:26;5.40;;;3.13;;
75737;SDS011;64356;45.638;13.764;2023-01-25T02:19:56;4.75;;;3.13;;
75737;SDS011;64356;45.638;13.764;2023-01-25T02:22:39;5.35;;;3.30;;
75737;SDS011;64356;45.638;13.764;2023-01-25T02:25:12;5.53;;;3.47;;
75737;SDS011;64356;45.638;13.764;2023-01-25T02:27:41;6.13;;;3.58;;
75737;SDS011;64356;45.638;13.764;2023-01-25T02:30:13;4.00;;;3.60;;
75737;SDS011;64356;45.638;13.764;2023-01-25T02:32:39;3.75;;;3.20;;
75737;SDS011;64356;45.638;13.764;2023-01-25T02:35:05;5.88;;;3.45;;
75737;SDS011;64356;45.638;13.764;2023-01-25T02:37:31;5.13;;;3.53;;
75737;SDS011;64356;45.638;13.764;2023-01-25T02:39:57;5.97;;;3.35;;
75737;SDS011;64356;45.638;13.764;2023-01-25T02:42:23;6.07;;;3.20;;
75737;SDS011;64356;45.638;13.764;2023-01-25T02:44:48;4.50;;;3.35;;
75737;SDS011;64356;45.638;13.764;2023-01-25T02:47:15;7.05;;;3.33;;
75737;SDS011;64356;45.638;13.764;2023-01-25T02:49:41;5.20;;;3.75;;
75737;SDS011;64356;45.638;13.764;2023-01-25T02:52:06;4.57;;;3.45;;
75737;SDS011;64356;45.638;13.764;2023-01-25T02:54:32;6.35;;;3.75;;
75737;SDS011;64356;45.638;13.764;2023-01-25T02:56:58;3.65;;;3.20;;
75737;SDS011;64356;45.638;13.764;2023-01-25T02:59:24;4.72;;;3.33;;
75737;SDS011;64356;45.638;13.764;2023-01-25T03:01:49;16.27;;;4.05;;
75737;SDS011;64356;45.638;13.764;2023-01-25T03:04:15;6.55;;;3.63;;
75737;SDS011;64356;45.638;13.764;2023-01-25T03:06:41;3.80;;;3.40;;
75737;SDS011;64356;45.638;13.764;2023-01-25T03:09:07;4.25;;;3.22;;
75737;SDS011;64356;45.638;13.764;2023-01-25T03:11:34;5.45;;;3.65;;
75737;SDS011;64356;45.638;13.764;2023-01-25T03:14:00;9.73;;;3.60;;
75737;SDS011;64356;45.638;13.764;2023-01-25T03:16:26;5.47;;;3.97;;
75737;SDS011;64356;45.638;13.764;2023-01-25T03:18:53;3.53;;;3.15;;
75737;SDS011;64356;45.638;13.764;2023-01-25T03:21:20;6.50;;;3.67;;
75737;SDS011;64356;45.638;13.764;2023-01-25T03:23:46;5.70;;;3.72;;
75737;SDS011;64356;45.638;13.764;2023-01-25T03:26:19;4.60;;;3.55;;
75737;SDS011;64356;45.638;13.764;2023-01-25T03:28:46;5.57;;;3.75;;
75737;SDS011;64356;45.638;13.764;2023-01-25T03:31:14;4.32;;;3.72;;
75737;SDS011;64356;45.638;13.764;2023-01-25T03:33:40;5.53;;;4.22;;
75737;SDS011;64356;45.638;13.764;2023-01-25T03:36:06;4.50;;;3.47;;
75737;SDS011;64356;45.638;13.764;2023-01-25T03:38:33;3.47;;;3.05;;
75737;SDS011;64356;45.638;13.764;2023-01-25T03:40:59;5.75;;;3.75;;
75737;SDS011;64356;45.638;13.764;2023-01-25T03:43:25;6.05;;;4.00;;
75737;SDS011;64356;45.638;13.764;2023-01-25T03:45:52;5.35;;;3.55;;
75737;SDS011;64356;45.638;13.764;2023-01-25T03:48:19;3.85;;;3.45;;
75737;SDS011;64356;45.638;13.764;2023-01-25T03:50:49;5.72;;;3.50;;
75737;SDS011;64356;45.638;13.764;2023-01-25T03:53:28;4.50;;;3.72;;
75737;SDS011;64356;45.638;13.764;2023-01-25T03:55:59;4.68;;;3.70;;
75737;SDS011;64356;45.638;13.764;2023-01-25T03:58:26;4.43;;;3.67;;
75737;SDS011;64356;45.638;13.764;2023-01-25T04:00:54;4.55;;;3.28;;
75737;SDS011;64356;45.638;13.764;2023-01-25T04:03:21;6.30;;;4.00;;
75737;SDS011;64356;45.638;13.764;2023-01-25T04:05:47;5.45;;;3.55;;
75737;SDS011;64356;45.638;13.764;2023-01-25T04:08:13;4.68;;;3.38;;
75737;SDS011;64356;45.638;13.764;2023-01-25T04:10:39;4.72;;;3.72;;
75737;SDS011;64356;45.638;13.764;2023-01-25T04:13:05;4.60;;;3.95;;
75737;SDS011;64356;45.638;13.764;2023-01-25T04:15:30;5.32;;;4.35;;
75737;SDS011;64356;45.638;13.764;2023-01-25T04:17:56;4.82;;;3.97;;
75737;SDS011;64356;45.638;13.764;2023-01-25T04:20:22;5.50;;;4.00;;
75737;SDS011;64356;45.638;13.764;2023-01-25T04:22:48;5.20;;;4.65;;
75737;SDS011;64356;45.638;13.764;2023-01-25T04:25:14;5.60;;;4.38;;
75737;SDS011;64356;45.638;13.764;2023-01-25T04:27:39;6.95;;;4.53;;
75737;SDS011;64356;45.638;13.764;2023-01-25T04:30:05;5.72;;;4.32;;
75737;SDS011;64356;45.638;13.764;2023-01-25T04:32:33;6.70;;;4.57;;
75737;SDS011;64356;45.638;13.764;2023-01-25T04:34:59;6.25;;;4.18;;
75737;SDS011;64356;45.638;13.764;2023-01-25T04:37:25;6.38;;;4.10;;
75737;SDS011;64356;45.638;13.764;2023-01-25T04:39:51;7.75;;;4.85;;
75737;SDS011;64356;45.638;13.764;2023-01-25T04:42:17;6.43;;;4.22;;
75737;SDS011;64356;45.638;13.764;2023-01-25T04:44:42;4.70;;;3.72;;
75737;SDS011;64356;45.638;13.764;2023-01-25T04:47:08;5.22;;;4.05;;
75737;SDS011;64356;45.638;13.764;2023-01-25T04:49:34;4.93;;;4.10;;
75737;SDS011;64356;45.638;13.764;2023-01-25T04:51:59;4.57;;;4.10;;
75737;SDS011;64356;45.638;13.764;2023-01-25T04:54:25;4.80;;;4.25;;
75737;SDS011;64356;45.638;13.764;2023-01-25T04:56:50;7.13;;;4.22;;
75737;SDS011;64356;45.638;13.764;2023-01-25T04:59:16;5.82;;;4.28;;
75737;SDS011;64356;45.638;13.764;2023-01-25T05:01:42;10.68;;;4.53;;
75737;SDS011;64356;45.638;13.764;2023-01-25T05:04:07;7.38;;;4.45;;
75737;SDS011;64356;45.638;13.764;2023-01-25T05:06:33;6.93;;;4.35;;
75737;SDS011;64356;45.638;13.764;2023-01-25T05:08:59;5.50;;;4.03;;
75737;SDS011;64356;45.638;13.764;2023-01-25T05:11:24;5.90;;;4.05;;
75737;SDS011;64356;45.638;13.764;2023-01-25T05:13:50;6.70;;;4.47;;
75737;SDS011;64356;45.638;13.764;2023-01-25T05:16:16;5.65;;;4.03;;
75737;SDS011;64356;45.638;13.764;2023-01-25T05:18:42;4.25;;;3.72;;
75737;SDS011;64356;45.638;13.764;2023-01-25T05:21:07;5.25;;;3.63;;
75737;SDS011;64356;45.638;13.764;2023-01-25T05:23:53;6.60;;;3.83;;
75737;SDS011;64356;45.638;13.764;2023-01-25T05:26:19;5.50;;;3.97;;
75737;SDS011;64356;45.638;13.764;2023-01-25T05:29:03;5.03;;;3.80;;
75737;SDS011;64356;45.638;13.764;2023-01-25T05:31:29;5.60;;;4.28;;
75737;SDS011;64356;45.638;13.764;2023-01-25T05:33:54;4.40;;;3.88;;
75737;SDS011;64356;45.638;13.764;2023-01-25T05:36:20;5.80;;;4.22;;
75737;SDS011;64356;45.638;13.764;2023-01-25T05:38:46;5.28;;;4.03;;
75737;SDS011;64356;45.638;13.764;2023-01-25T05:41:11;4.50;;;3.60;;
75737;SDS011;64356;45.638;13.764;2023-01-25T05:43:37;5.97;;;3.85;;
75737;SDS011;64356;45.638;13.764;2023-01-25T05:46:03;4.18;;;3.50;;
75737;SDS011;64356;45.638;13.764;2023-01-25T05:48:29;4.68;;;3.83;;
75737;SDS011;64356;45.638;13.764;2023-01-25T05:50:58;5.03;;;3.60;;
75737;SDS011;64356;45.638;13.764;2023-01-25T05:53:24;6.63;;;3.85;;
75737;SDS011;64356;45.638;13.764;2023-01-25T05:55:50;4.53;;;3.53;;
75737;SDS011;64356;45.638;13.764;2023-01-25T05:58:16;5.03;;;3.83;;
75737;SDS011;64356;45.638;13.764;2023-01-25T06:00:42;5.18;;;3.60;;
75737;SDS011;64356;45.638;13.764;2023-01-25T06:03:08;6.30;;;4.07;;
75737;SDS011;64356;45.638;13.764;2023-01-25T06:05:34;9.55;;;4.13;;
75737;SDS011;64356;45.638;13.764;2023-01-25T06:08:00;6.05;;;3.53;;
75737;SDS011;64356;45.638;13.764;2023-01-25T06:10:25;4.85;;;4.07;;
75737;SDS011;64356;45.638;13.764;2023-01-25T06:12:56;7.00;;;3.95;;
75737;SDS011;64356;45.638;13.764;2023-01-25T06:15:22;5.82;;;4.50;;
75737;SDS011;64356;45.638;13.764;2023-01-25T06:17:48;8.30;;;3.95;;
75737;SDS011;64356;45.638;13.764;2023-01-25T06:20:18;4.75;;;3.75;;
75737;SDS011;64356;45.638;13.764;2023-01-25T06:22:47;5.68;;;3.90;;
75737;SDS011;64356;45.638;13.764;2023-01-25T06:25:14;7.95;;;4.40;;
75737;SDS011;64356;45.638;13.764;2023-01-25T06:27:39;5.07;;;3.67;;
75737;SDS011;64356;45.638;13.764;2023-01-25T06:30:05;5.50;;;4.00;;
75737;SDS011;64356;45.638;13.764;2023-01-25T06:32:32;4.82;;;4.03;;
75737;SDS011;64356;45.638;13.764;2023-01-25T06:34:57;4.53;;;3.55;;
75737;SDS011;64356;45.638;13.764;2023-01-25T06:37:23;14.23;;;5.00;;
75737;SDS011;64356;45.638;13.764;2023-01-25T06:39:49;5.85;;;3.80;;
75737;SDS011;64356;45.638;13.764;2023-01-25T06:42:14;7.70;;;3.40;;
75737;SDS011;64356;45.638;13.764;2023-01-25T06:44:40;10.27;;;3.83;;
75737;SDS011;64356;45.638;13.764;2023-01-25T06:47:08;5.53;;;3.67;;
75737;SDS011;64356;45.638;13.764;2023-01-25T06:49:35;4.50;;;3.65;;
75737;SDS011;64356;45.638;13.764;2023-01-25T06:52:01;5.93;;;5.03;;
75737;SDS011;64356;45.638;13.764;2023-01-25T06:54:26;8.80;;;4.32;;
75737;SDS011;64356;45.638;13.764;2023-01-25T06:56:52;29.98;;;5.78;;
75737;SDS011;64356;45.638;13.764;2023-01-25T06:59:18;16.52;;;7.78;;
75737;SDS011;64356;45.638;13.764;2023-01-25T07:01:45;19.35;;;7.85;;
75737;SDS011;64356;45.638;13.764;2023-01-25T07:04:10;20.45;;;6.43;;
75737;SDS011;64356;45.638;13.764;2023-01-25T07:06:36;17.77;;;5.63;;
75737;SDS011;64356;45.638;13.764;2023-01-25T07:09:03;15.80;;;5.95;;
75737;SDS011;64356;45.638;13.764;2023-01-25T07:11:31;13.35;;;5.45;;
75737;SDS011;64356;45.638;13.764;2023-01-25T07:13:56;13.57;;;6.05;;
75737;SDS011;64356;45.638;13.764;2023-01-25T07:16:22;19.70;;;4.90;;
75737;SDS011;64356;45.638;13.764;2023-01-25T07:18:48;13.77;;;4.68;;
75737;SDS011;64356;45.638;13.764;2023-01-25T07:21:15;10.63;;;4.35;;
75737;SDS011;64356;45.638;13.764;2023-01-25T07:23:42;9.50;;;4.68;;
75737;SDS011;64356;45.638;13.764;2023-01-25T07:26:26;9.75;;;4.50;;
75737;SDS011;64356;45.638;13.764;2023-01-25T07:28:53;6.70;;;4.72;;
75737;SDS011;64356;45.638;13.764;2023-01-25T07:31:20;5.13;;;4.13;;
75737;SDS011;64356;45.638;13.764;2023-01-25T07:33:47;12.45;;;5.15;;
75737;SDS011;64356;45.638;13.764;2023-01-25T07:36:14;6.43;;;4.32;;
75737;SDS011;64356;45.638;13.764;2023-01-25T07:38:39;7.90;;;4.20;;
75737;SDS011;64356;45.638;13.764;2023-01-25T07:41:05;16.70;;;5.35;;
75737;SDS011;64356;45.638;13.764;2023-01-25T07:43:31;11.23;;;4.00;;
75737;SDS011;64356;45.638;13.764;2023-01-25T07:46:00;7.57;;;4.28;;
75737;SDS011;64356;45.638;13.764;2023-01-25T07:48:28;8.00;;;5.03;;
75737;SDS011;64356;45.638;13.764;2023-01-25T07:50:57;11.18;;;4.30;;
75737;SDS011;64356;45.638;13.764;2023-01-25T07:53:45;11.10;;;4.15;;
75737;SDS011;64356;45.638;13.764;2023-01-25T07:56:11;14.93;;;4.78;;
75737;SDS011;64356;45.638;13.764;2023-01-25T07:58:37;19.02;;;5.85;;
75737;SDS011;64356;45.638;13.764;2023-01-25T08:01:13;7.60;;;5.13;;
75737;SDS011;64356;45.638;13.764;2023-01-25T08:03:41;10.20;;;4.95;;
75737;SDS011;64356;45.638;13.764;2023-01-25T08:06:07;7.38;;;4.63;;
75737;SDS011;64356;45.638;13.764;2023-01-25T08:08:35;10.85;;;5.05;;
75737;SDS011;64356;45.638;13.764;2023-01-25T08:11:08;9.85;;;5.03;;
75737;SDS011;64356;45.638;13.764;2023-01-25T08:13:42;5.35;;;3.63;;
75737;SDS011;64356;45.638;13.764;2023-01-25T08:16:14;6.65;;;3.75;;
75737;SDS011;64356;45.638;13.764;2023-01-25T08:18:45;11.43;;;2.97;;
75737;SDS011;64356;45.638;13.764;2023-01-25T08:21:12;14.50;;;3.90;;
75737;SDS011;64356;45.638;13.764;2023-01-25T08:23:37;10.32;;;3.05;;
75737;SDS011;64356;45.638;13.764;2023-01-25T08:26:07;16.33;;;3.38;;
75737;SDS011;64356;45.638;13.764;2023-01-25T08:31:10;4.07;;;2.92;;
75737;SDS011;64356;45.638;13.764;2023-01-25T08:33:38;9.15;;;3.13;;
75737;SDS011;64356;45.638;13.764;2023-01-25T08:36:05;7.70;;;2.80;;
75737;SDS011;64356;45.638;13.764;2023-01-25T08:38:32;11.60;;;3.55;;
75737;SDS011;64356;45.638;13.764;2023-01-25T08:41:08;15.38;;;3.97;;
75737;SDS011;64356;45.638;13.764;2023-01-25T08:43:34;14.25;;;3.10;;
75737;SDS011;64356;45.638;13.764;2023-01-25T08:46:00;5.75;;;2.58;;
75737;SDS011;64356;45.638;13.764;2023-01-25T08:48:26;9.77;;;3.50;;
75737;SDS011;64356;45.638;13.764;2023-01-25T08:50:52;9.70;;;2.97;;
75737;SDS011;64356;45.638;13.764;2023-01-25T08:53:18;17.88;;;4.10;;
75737;SDS011;64356;45.638;13.764;2023-01-25T08:55:44;19.98;;;3.72;;
75737;SDS011;64356;45.638;13.764;2023-01-25T08:58:13;17.40;;;3.65;;
75737;SDS011;64356;45.638;13.764;2023-01-25T09:00:41;11.95;;;3.33;;
75737;SDS011;64356;45.638;13.764;2023-01-25T09:03:09;18.13;;;4.28;;
75737;SDS011;64356;45.638;13.764;2023-01-25T09:05:36;15.63;;;5.10;;
75737;SDS011;64356;45.638;13.764;2023-01-25T09:08:03;22.58;;;3.70;;
75737;SDS011;64356;45.638;13.764;2023-01-25T09:10:32;28.77;;;5.22;;
75737;SDS011;64356;45.638;13.764;2023-01-25T09:12:58;33.05;;;4.55;;
75737;SDS011;64356;45.638;13.764;2023-01-25T09:15:24;49.90;;;4.60;;
75737;SDS011;64356;45.638;13.764;2023-01-25T09:17:51;28.23;;;6.07;;
75737;SDS011;64356;45.638;13.764;2023-01-25T09:20:17;24.60;;;4.95;;
75737;SDS011;64356;45.638;13.764;2023-01-25T09:22:44;24.52;;;5.18;;
75737;SDS011;64356;45.638;13.764;2023-01-25T09:25:09;27.75;;;5.10;;
75737;SDS011;64356;45.638;13.764;2023-01-25T09:27:35;34.72;;;4.95;;
75737;SDS011;64356;45.638;13.764;2023-01-25T09:30:02;20.85;;;5.03;;
75737;SDS011;64356;45.638;13.764;2023-01-25T09:32:28;31.17;;;6.20;;
75737;SDS011;64356;45.638;13.764;2023-01-25T09:34:54;20.80;;;4.90;;
75737;SDS011;64356;45.638;13.764;2023-01-25T09:37:20;26.90;;;5.70;;
75737;SDS011;64356;45.638;13.764;2023-01-25T09:39:46;16.80;;;5.22;;
75737;SDS011;64356;45.638;13.764;2023-01-25T09:47:33;27.98;;;5.13;;
75737;SDS011;64356;45.638;13.764;2023-01-25T09:53:15;25.00;;;5.35;;
75737;SDS011;64356;45.638;13.764;2023-01-25T09:56:10;31.23;;;5.18;;
75737;SDS011;64356;45.638;13.764;2023-01-25T09:58:45;41.47;;;6.07;;
75737;SDS011;64356;45.638;13.764;2023-01-25T10:01:33;40.35;;;6.10;;
75737;SDS011;64356;45.638;13.764;2023-01-25T10:04:16;29.92;;;5.30;;
75737;SDS011;64356;45.638;13.764;2023-01-25T10:06:43;27.33;;;5.40;;
75737;SDS011;64356;45.638;13.764;2023-01-25T10:11:46;23.35;;;5.07;;
75737;SDS011;64356;45.638;13.764;2023-01-25T10:14:16;22.65;;;4.55;;
75737;SDS011;64356;45.638;13.764;2023-01-25T10:27:01;18.08;;;4.63;;
75737;SDS011;64356;45.638;13.764;2023-01-25T10:29:40;29.23;;;4.78;;
75737;SDS011;64356;45.638;13.764;2023-01-25T10:34:57;27.70;;;4.95;;
75737;SDS011;64356;45.638;13.764;2023-01-25T10:37:43;20.25;;;4.88;;
75737;SDS011;64356;45.638;13.764;2023-01-25T10:40:14;18.52;;;4.72;;
75737;SDS011;64356;45.638;13.764;2023-01-25T10:42:45;19.23;;;4.07;;
75737;SDS011;64356;45.638;13.764;2023-01-25T10:45:19;17.08;;;4.03;;
75737;SDS011;64356;45.638;13.764;2023-01-25T10:47:46;17.17;;;4.00;;
75737;SDS011;64356;45.638;13.764;2023-01-25T10:53:03;28.48;;;5.38;;
75737;SDS011;64356;45.638;13.764;2023-01-25T10:55:29;21.85;;;4.85;;
75737;SDS011;64356;45.638;13.764;2023-01-25T10:57:56;24.25;;;4.50;;
75737;SDS011;64356;45.638;13.764;2023-01-25T11:02:53;22.60;;;5.13;;
75737;SDS011;64356;45.638;13.764;2023-01-25T11:10:55;27.63;;;6.30;;
75737;SDS011;64356;45.638;13.764;2023-01-25T11:13:28;22.90;;;5.25;;
75737;SDS011;64356;45.638;13.764;2023-01-25T11:18:29;10.00;;;3.83;;
75737;SDS011;64356;45.638;13.764;2023-01-25T11:21:09;25.73;;;6.43;;
75737;SDS011;64356;45.638;13.764;2023-01-25T11:27:34;15.05;;;4.68;;
75737;SDS011;64356;45.638;13.764;2023-01-25T11:30:15;26.38;;;5.05;;
75737;SDS011;64356;45.638;13.764;2023-01-25T11:32:45;14.38;;;5.00;;
75737;SDS011;64356;45.638;13.764;2023-01-25T11:38:13;11.48;;;4.75;;
75737;SDS011;64356;45.638;13.764;2023-01-25T11:48:46;16.35;;;4.57;;
75737;SDS011;64356;45.638;13.764;2023-01-25T11:51:40;25.80;;;5.07;;
75737;SDS011;64356;45.638;13.764;2023-01-25T11:57:17;17.15;;;5.65;;
75737;SDS011;64356;45.638;13.764;2023-01-25T12:03:02;20.00;;;5.40;;
75737;SDS011;64356;45.638;13.764;2023-01-25T12:08:48;30.13;;;6.25;;
75737;SDS011;64356;45.638;13.764;2023-01-25T12:14:00;14.90;;;4.35;;
75737;SDS011;64356;45.638;13.764;2023-01-25T12:19:19;18.85;;;5.20;;
75737;SDS011;64356;45.638;13.764;2023-01-25T12:22:18;18.73;;;4.57;;
75737;SDS011;64356;45.638;13.764;2023-01-25T12:33:12;27.92;;;5.93;;
75737;SDS011;64356;45.638;13.764;2023-01-25T12:35:50;35.78;;;5.40;;
75737;SDS011;64356;45.638;13.764;2023-01-25T12:45:26;35.13;;;5.22;;
75737;SDS011;64356;45.638;13.764;2023-01-25T12:47:39;16.60;;;4.63;;
75737;SDS011;64356;45.638;13.764;2023-01-25T12:50:21;16.80;;;5.28;;
75737;SDS011;64356;45.638;13.764;2023-01-25T12:52:58;26.02;;;6.57;;
75737;SDS011;64356;45.638;13.764;2023-01-25T12:55:34;20.90;;;5.95;;
75737;SDS011;64356;45.638;13.764;2023-01-25T13:06:48;15.13;;;5.65;;
75737;SDS011;64356;45.638;13.764;2023-01-25T13:09:47;14.30;;;6.60;;
75737;SDS011;64356;45.638;13.764;2023-01-25T13:12:27;18.63;;;6.72;;
75737;SDS011;64356;45.638;13.764;2023-01-25T13:14:53;13.18;;;6.70;;
75737;SDS011;64356;45.638;13.764;2023-01-25T13:19:56;17.23;;;5.80;;
75737;SDS011;64356;45.638;13.764;2023-01-25T13:25:07;12.38;;;5.55;;
75737;SDS011;64356;45.638;13.764;2023-01-25T13:27:34;13.80;;;6.22;;
75737;SDS011;64356;45.638;13.764;2023-01-25T13:35:31;18.23;;;6.00;;
75737;SDS011;64356;45.638;13.764;2023-01-25T13:40:37;18.02;;;6.30;;
75737;SDS011;64356;45.638;13.764;2023-01-25T13:43:16;16.58;;;6.63;;
75737;SDS011;64356;45.638;13.764;2023-01-25T13:45:44;13.13;;;6.65;;
75737;SDS011;64356;45.638;13.764;2023-01-25T13:48:15;19.70;;;6.85;;
75737;SDS011;64356;45.638;13.764;2023-01-25T13:50:54;19.25;;;6.30;;
75737;SDS011;64356;45.638;13.764;2023-01-25T13:53:26;23.15;;;7.38;;
75737;SDS011;64356;45.638;13.764;2023-01-25T13:55:57;25.63;;;6.57;;
75737;SDS011;64356;45.638;13.764;2023-01-25T14:00:50;23.83;;;6.95;;
75737;SDS011;64356;45.638;13.764;2023-01-25T14:03:25;19.45;;;6.80;;
75737;SDS011;64356;45.638;13.764;2023-01-25T14:05:56;10.50;;;7.03;;
75737;SDS011;64356;45.638;13.764;2023-01-25T14:08:23;25.92;;;7.45;;
75737;SDS011;64356;45.638;13.764;2023-01-25T14:10:50;11.73;;;6.57;;
75737;SDS011;64356;45.638;13.764;2023-01-25T14:13:17;19.02;;;7.65;;
75737;SDS011;64356;45.638;13.764;2023-01-25T14:15:56;18.23;;;7.13;;
75737;SDS011;64356;45.638;13.764;2023-01-25T14:18:31;24.13;;;7.05;;
75737;SDS011;64356;45.638;13.764;2023-01-25T14:21:08;28.13;;;7.13;;
75737;SDS011;64356;45.638;13.764;2023-01-25T14:23:34;17.63;;;6.80;;
75737;SDS011;64356;45.638;13.764;2023-01-25T14:26:00;16.80;;;6.43;;
75737;SDS011;64356;45.638;13.764;2023-01-25T14:28:26;14.75;;;6.75;;
75737;SDS011;64356;45.638;13.764;2023-01-25T14:30:54;13.00;;;5.28;;
75737;SDS011;64356;45.638;13.764;2023-01-25T14:33:25;11.63;;;5.72;;
75737;SDS011;64356;45.638;13.764;2023-01-25T14:35:52;15.82;;;5.53;;
75737;SDS011;64356;45.638;13.764;2023-01-25T14:38:23;10.05;;;5.53;;
75737;SDS011;64356;45.638;13.764;2023-01-25T14:40:50;11.77;;;5.80;;
75737;SDS011;64356;45.638;13.764;2023-01-25T14:43:57;8.57;;;5.50;;
75737;SDS011;64356;45.638;13.764;2023-01-25T14:46:28;9.18;;;5.88;;
75737;SDS011;64356;45.638;13.764;2023-01-25T14:51:57;10.98;;;6.30;;
75737;SDS011;64356;45.638;13.764;2023-01-25T14:54:28;12.52;;;5.10;;
75737;SDS011;64356;45.638;13.764;2023-01-25T14:56:57;15.52;;;5.25;;
75737;SDS011;64356;45.638;13.764;2023-01-25T15:05:02;10.88;;;5.18;;
75737;SDS011;64356;45.638;13.764;2023-01-25T15:07:52;10.00;;;5.38;;
75737;SDS011;64356;45.638;13.764;2023-01-25T15:10:37;8.63;;;4.97;;
75737;SDS011;64356;45.638;13.764;2023-01-25T15:13:21;6.28;;;4.47;;
75737;SDS011;64356;45.638;13.764;2023-01-25T15:18:40;8.35;;;5.05;;
75737;SDS011;64356;45.638;13.764;2023-01-25T15:23:48;7.18;;;5.10;;
75737;SDS011;64356;45.638;13.764;2023-01-25T15:28:50;14.25;;;6.03;;
75737;SDS011;64356;45.638;13.764;2023-01-25T15:31:24;8.15;;;5.95;;
75737;SDS011;64356;45.638;13.764;2023-01-25T15:33:55;8.52;;;5.55;;
75737;SDS011;64356;45.638;13.764;2023-01-25T15:36:22;7.43;;;5.95;;
75737;SDS011;64356;45.638;13.764;2023-01-25T15:38:48;8.32;;;4.95;;
75737;SDS011;64356;45.638;13.764;2023-01-25T15:41:14;9.05;;;5.60;;
75737;SDS011;64356;45.638;13.764;2023-01-25T15:43:42;16.27;;;5.30;;
75737;SDS011;64356;45.638;13.764;2023-01-25T15:46:13;13.25;;;5.32;;
75737;SDS011;64356;45.638;13.764;2023-01-25T15:48:45;12.60;;;5.72;;
75737;SDS011;64356;45.638;13.764;2023-01-25T15:51:12;7.53;;;5.38;;
75737;SDS011;64356;45.638;13.764;2023-01-25T15:53:38;12.93;;;6.43;;
75737;SDS011;64356;45.638;13.764;2023-01-25T15:56:23;8.35;;;5.43;;
75737;SDS011;64356;45.638;13.764;2023-01-25T15:58:52;8.27;;;5.45;;
75737;SDS011;64356;45.638;13.764;2023-01-25T16:01:22;9.48;;;6.07;;
75737;SDS011;64356;45.638;13.764;2023-01-25T16:03:51;9.45;;;5.43;;
75737;SDS011;64356;45.638;13.764;2023-01-25T16:06:22;14.85;;;6.00;;
75737;SDS011;64356;45.638;13.764;2023-01-25T16:08:49;11.20;;;5.75;;
75737;SDS011;64356;45.638;13.764;2023-01-25T16:11:15;6.57;;;4.95;;
75737;SDS011;64356;45.638;13.764;2023-01-25T16:13:41;6.53;;;5.50;;
75737;SDS011;64356;45.638;13.764;2023-01-25T16:16:07;6.95;;;5.57;;
75737;SDS011;64356;45.638;13.764;2023-01-25T16:18:45;6.22;;;5.10;;
75737;SDS011;64356;45.638;13.764;2023-01-25T16:21:11;9.98;;;5.03;;
75737;SDS011;64356;45.638;13.764;2023-01-25T16:23:37;9.00;;;5.20;;
75737;SDS011;64356;45.638;13.764;2023-01-25T16:26:08;7.93;;;5.05;;
75737;SDS011;64356;45.638;13.764;2023-01-25T16:28:51;8.98;;;5.30;;
75737;SDS011;64356;45.638;13.764;2023-01-25T16:31:17;7.05;;;5.82;;
75737;SDS011;64356;45.638;13.764;2023-01-25T16:33:43;6.25;;;5.32;;
75737;SDS011;64356;45.638;13.764;2023-01-25T16:38:39;7.95;;;5.70;;
75737;SDS011;64356;45.638;13.764;2023-01-25T16:41:05;12.13;;;5.57;;
75737;SDS011;64356;45.638;13.764;2023-01-25T16:43:31;8.90;;;5.15;;
75737;SDS011;64356;45.638;13.764;2023-01-25T16:45:56;8.63;;;5.38;;
75737;SDS011;64356;45.638;13.764;2023-01-25T16:48:22;11.65;;;5.93;;
75737;SDS011;64356;45.638;13.764;2023-01-25T16:50:49;8.65;;;5.30;;
75737;SDS011;64356;45.638;13.764;2023-01-25T16:53:15;11.85;;;5.45;;
75737;SDS011;64356;45.638;13.764;2023-01-25T16:55:41;8.30;;;6.03;;